createdAt,value
2022-11-14T00:01:20.647Z,10.30
2022-11-14T00:03:51.275Z,10.57
2022-11-14T00:06:20.008Z,9.87
2022-11-14T00:08:47.064Z,11.33
2022-11-14T00:11:14.116Z,12.27
2022-11-14T00:13:41.143Z,12.03
2022-11-14T00:16:08.243Z,11.77
2022-11-14T00:18:35.360Z,12.30
2022-11-14T00:21:02.636Z,10.60
2022-11-14T00:23:29.669Z,10.00
2022-11-14T00:25:56.819Z,11.40
2022-11-14T00:28:23.829Z,11.10
2022-11-14T00:30:50.905Z,11.93
2022-11-14T00:33:20.996Z,12.33
2022-11-14T00:35:56.610Z,11.80
2022-11-14T00:38:24.673Z,12.87
2022-11-14T00:40:51.893Z,11.90
2022-11-14T00:43:19.217Z,12.27
2022-11-14T00:45:48.146Z,10.90
2022-11-14T00:48:16.358Z,11.33
2022-11-14T00:50:44.469Z,12.80
2022-11-14T00:53:22.808Z,10.53
2022-11-14T00:55:50.569Z,11.97
2022-11-14T00:58:17.571Z,11.80
2022-11-14T01:00:44.818Z,11.20
2022-11-14T01:03:12.018Z,11.60
2022-11-14T01:05:48.468Z,10.87
2022-11-14T01:08:18.358Z,11.57
2022-11-14T01:10:49.851Z,10.80
2022-11-14T01:13:19.110Z,10.60
2022-11-14T01:15:49.688Z,10.23
2022-11-14T01:18:21.960Z,10.20
2022-11-14T01:20:49.816Z,9.90
2022-11-14T01:23:17.933Z,10.20
2022-11-14T01:25:45.626Z,10.40
2022-11-14T01:28:16.821Z,9.63
2022-11-14T01:30:44.119Z,10.10
2022-11-14T01:33:11.219Z,9.80
2022-11-14T01:35:39.391Z,10.00
2022-11-14T01:38:06.963Z,10.43
2022-11-14T01:40:34.170Z,9.73
2022-11-14T01:43:19.785Z,11.33
2022-11-14T01:46:04.415Z,9.80
2022-11-14T01:48:51.153Z,9.30
2022-11-14T01:51:33.935Z,9.47
2022-11-14T01:54:07.625Z,9.53
2022-11-14T01:56:48.629Z,9.57
2022-11-14T01:59:21.711Z,9.40
2022-11-14T02:01:52.522Z,9.57
2022-11-14T02:04:33.283Z,9.97
2022-11-14T02:07:04.784Z,10.00
2022-11-14T02:09:38.092Z,9.83
2022-11-14T02:12:20.966Z,9.87
2022-11-14T02:14:55.244Z,11.33
2022-11-14T02:17:36.547Z,9.33
2022-11-14T02:20:12.009Z,9.13
2022-11-14T02:22:43.294Z,8.10
2022-11-14T02:25:15.751Z,9.93
2022-11-14T02:27:43.313Z,10.17
2022-11-14T02:30:22.435Z,9.87
2022-11-14T02:33:09.914Z,9.73
2022-11-14T02:35:39.802Z,10.20
2022-11-14T02:38:09.709Z,10.23
2022-11-14T02:40:36.840Z,10.37
2022-11-14T02:43:23.946Z,9.70
2022-11-14T02:45:51.203Z,9.87
2022-11-14T02:48:28.817Z,9.50
2022-11-14T02:50:59.945Z,10.47
2022-11-14T02:53:29.591Z,9.87
2022-11-14T02:56:13.886Z,10.83
2022-11-14T02:58:42.397Z,11.03
2022-11-14T03:01:21.156Z,10.07
2022-11-14T03:04:00.072Z,9.40
2022-11-14T03:06:29.408Z,9.23
2022-11-14T03:09:07.502Z,10.67
2022-11-14T03:11:45.583Z,9.47
2022-11-14T03:14:24.531Z,10.30
2022-11-14T03:17:05.844Z,10.53
2022-11-14T03:19:33.939Z,10.37
2022-11-14T03:22:01.035Z,9.60
2022-11-14T03:24:28.143Z,9.43
2022-11-14T03:26:56.385Z,9.93
2022-11-14T03:29:34.441Z,11.37
2022-11-14T03:32:04.467Z,9.43
2022-11-14T03:34:35.087Z,8.93
2022-11-14T03:37:02.339Z,9.23
2022-11-14T03:39:30.898Z,9.63
2022-11-14T03:42:05.047Z,9.10
2022-11-14T03:44:42.655Z,8.50
2022-11-14T03:47:09.772Z,9.13
2022-11-14T03:49:36.868Z,8.90
2022-11-14T03:52:14.409Z,8.37
2022-11-14T03:54:42.594Z,8.80
2022-11-14T03:57:09.706Z,9.20
2022-11-14T03:59:46.320Z,8.60
2022-11-14T04:02:21.353Z,8.50
2022-11-14T04:04:48.472Z,8.67
2022-11-14T04:07:15.697Z,8.70
2022-11-14T04:09:44.959Z,8.57
2022-11-14T04:12:15.657Z,9.30
2022-11-14T04:14:43.184Z,8.77
2022-11-14T04:17:10.358Z,9.30
2022-11-14T04:19:37.608Z,9.20
2022-11-14T04:22:05.475Z,8.37
2022-11-14T04:24:32.998Z,9.20
2022-11-14T04:27:00.131Z,9.10
2022-11-14T04:29:27.228Z,8.60
2022-11-14T04:31:54.385Z,9.27
2022-11-14T04:34:21.456Z,8.70
2022-11-14T04:36:51.336Z,9.47
2022-11-14T04:39:19.124Z,9.53
2022-11-14T04:41:46.302Z,9.67
2022-11-14T04:44:13.323Z,8.00
2022-11-14T04:46:40.446Z,11.83
2022-11-14T04:49:07.630Z,7.93
2022-11-14T04:51:34.745Z,7.00
2022-11-14T04:54:02.043Z,8.67
2022-11-14T04:56:30.775Z,9.27
2022-11-14T04:59:08.991Z,7.17
2022-11-14T05:01:36.771Z,8.10
2022-11-14T05:04:04.552Z,7.30
2022-11-14T05:06:31.694Z,8.30
2022-11-14T05:08:58.771Z,8.73
2022-11-14T05:11:29.198Z,9.23
2022-11-14T05:13:56.514Z,8.30
2022-11-14T05:16:23.730Z,7.93
2022-11-14T05:19:06.244Z,8.77
2022-11-14T05:21:47.200Z,8.50
2022-11-14T05:24:28.281Z,8.60
2022-11-14T05:27:07.515Z,8.73
2022-11-14T05:29:46.893Z,10.67
2022-11-14T05:32:26.398Z,8.87
2022-11-14T05:35:06.323Z,8.10
2022-11-14T05:37:45.569Z,8.20
2022-11-14T05:40:25.450Z,8.67
2022-11-14T05:43:05.745Z,7.83
2022-11-14T05:45:43.273Z,7.80
2022-11-14T05:48:23.602Z,8.97
2022-11-14T05:51:10.420Z,7.77
2022-11-14T05:53:51.813Z,7.70
2022-11-14T05:56:50.227Z,7.63
2022-11-14T05:59:57.570Z,7.30
2022-11-14T06:02:49.893Z,7.47
2022-11-14T09:00:19.092Z,19.43
2022-11-14T09:11:19.058Z,17.87
2022-11-14T09:13:57.236Z,19.90
2022-11-14T09:16:37.710Z,23.33
2022-11-14T09:19:15.639Z,20.40
2022-11-14T09:22:00.006Z,21.17
2022-11-14T09:24:56.759Z,23.30
2022-11-14T09:27:45.814Z,22.90
2022-11-14T09:30:37.021Z,23.50
2022-11-14T09:33:35.228Z,21.20
2022-11-14T09:36:35.151Z,22.97
2022-11-14T09:39:36.299Z,22.77
2022-11-14T09:42:49.316Z,24.03
2022-11-14T09:45:44.141Z,24.10
2022-11-14T11:58:49.397Z,16.27
2022-11-14T12:01:27.403Z,16.43
2022-11-14T12:04:07.888Z,15.17
2022-11-14T12:07:18.097Z,14.27
2022-11-14T12:10:13.123Z,14.20
2022-11-14T12:12:49.612Z,14.50
2022-11-14T12:16:17.893Z,12.87
2022-11-14T12:19:02.965Z,13.27
2022-11-14T12:22:09.582Z,12.93
2022-11-14T12:25:44.785Z,12.90
2022-11-14T12:28:43.351Z,11.97
2022-11-14T12:31:22.649Z,11.20
2022-11-14T12:34:21.205Z,12.17
2022-11-14T12:36:59.264Z,13.27
2022-11-14T12:39:38.794Z,13.00
2022-11-14T12:42:23.993Z,11.30
2022-11-14T12:45:04.151Z,12.40
2022-11-14T12:48:01.024Z,13.53
2022-11-14T12:50:50.024Z,11.23
2022-11-14T12:53:43.338Z,11.80
2022-11-14T12:57:11.183Z,11.60
2022-11-14T13:00:10.813Z,13.03
2022-11-14T13:03:22.947Z,12.47
2022-11-14T13:06:37.925Z,12.30
2022-11-14T13:10:20.231Z,12.27
2022-11-14T15:24:04.971Z,10.23
2022-11-14T15:26:44.781Z,13.43
2022-11-14T15:29:35.776Z,13.23
2022-11-14T15:32:23.200Z,15.17
2022-11-14T15:35:28.984Z,15.40
2022-11-14T15:41:31.349Z,13.40
2022-11-14T15:44:09.240Z,16.07
2022-11-14T15:46:56.211Z,14.93
2022-11-14T15:49:37.539Z,13.83
2022-11-14T15:52:30.517Z,14.60
2022-11-14T16:34:21.462Z,34.07
2022-11-14T16:37:06.567Z,30.03
2022-11-14T16:39:47.378Z,26.63
2022-11-14T16:42:29.087Z,23.70
2022-11-14T16:45:16.014Z,25.00
2022-11-14T16:47:57.965Z,18.10
2022-11-14T16:50:25.324Z,20.20
2022-11-14T16:52:52.463Z,17.20
2022-11-14T16:55:19.715Z,14.60
2022-11-14T16:57:47.090Z,15.67
2022-11-14T17:00:14.744Z,17.63
2022-11-14T17:02:45.340Z,16.43
2022-11-14T17:05:12.855Z,17.63
2022-11-14T17:07:40.113Z,14.37
2022-11-14T17:10:08.357Z,15.47
2022-11-14T17:12:35.616Z,16.43
2022-11-14T17:15:02.918Z,16.73
2022-11-14T17:17:31.188Z,15.13
2022-11-14T17:19:58.332Z,17.10
2022-11-14T17:22:25.392Z,15.23
2022-11-14T17:24:52.564Z,16.77
2022-11-14T17:27:19.696Z,16.50
2022-11-14T17:29:46.945Z,16.23
2022-11-14T17:32:16.736Z,15.10
2022-11-14T17:34:44.032Z,15.17
2022-11-14T17:37:12.158Z,14.87
2022-11-14T17:39:39.431Z,15.97
2022-11-14T17:42:07.515Z,19.80
2022-11-14T17:44:34.606Z,14.73
2022-11-14T17:47:01.859Z,15.90
2022-11-14T17:49:29.018Z,15.33
2022-11-14T17:51:56.240Z,14.77
2022-11-14T17:54:23.382Z,17.57
2022-11-14T17:56:54.736Z,16.07
2022-11-14T17:59:22.320Z,15.97
2022-11-14T18:01:49.936Z,17.27
2022-11-14T18:04:17.165Z,15.20
2022-11-14T18:06:44.419Z,14.97
2022-11-14T18:09:14.408Z,15.87
2022-11-14T18:11:41.858Z,15.10
2022-11-14T18:14:08.969Z,15.70
2022-11-14T18:17:05.244Z,14.40
2022-11-14T18:19:24.398Z,15.10
2022-11-14T18:21:53.916Z,14.70
2022-11-14T18:24:22.296Z,16.77
2022-11-14T18:26:51.113Z,15.43
2022-11-14T18:29:18.572Z,17.80
2022-11-14T18:31:45.749Z,16.10
2022-11-14T18:34:14.572Z,17.83
2022-11-14T18:36:41.766Z,16.20
2022-11-14T18:39:08.952Z,17.97
2022-11-14T18:41:36.228Z,17.47
2022-11-14T18:44:05.348Z,20.67
2022-11-14T18:46:37.083Z,18.20
2022-11-14T18:49:04.742Z,17.97
2022-11-14T18:51:32.051Z,16.47
2022-11-14T18:54:01.969Z,17.87
2022-11-14T18:56:29.062Z,17.27
2022-11-14T18:58:57.309Z,17.80
2022-11-14T19:01:32.660Z,15.10
2022-11-14T19:04:07.242Z,19.23
2022-11-14T19:06:41.290Z,16.97
2022-11-14T19:09:12.785Z,19.70
2022-11-14T19:11:58.468Z,18.37
2022-11-14T19:14:25.677Z,18.07
2022-11-14T19:16:53.157Z,17.43
2022-11-14T19:19:20.631Z,21.13
2022-11-14T19:21:51.435Z,20.70
2022-11-14T19:24:19.218Z,18.40
2022-11-14T19:26:46.383Z,23.77
2022-11-14T19:29:14.097Z,22.13
2022-11-14T19:31:42.886Z,19.43
2022-11-14T19:34:10.534Z,17.07
2022-11-14T19:36:59.000Z,17.47
2022-11-14T19:39:25.170Z,15.10
2022-11-14T19:41:52.402Z,15.10
2022-11-14T19:44:19.553Z,16.53
2022-11-14T19:46:48.029Z,16.27
2022-11-14T19:49:15.865Z,16.83
2022-11-14T19:51:43.293Z,16.07
2022-11-14T19:54:11.440Z,18.03
2022-11-14T19:56:38.799Z,19.07
2022-11-14T19:59:11.092Z,16.17
2022-11-14T20:01:42.358Z,18.77
2022-11-14T20:04:13.218Z,19.63
2022-11-14T20:06:41.895Z,15.67
2022-11-14T20:09:11.092Z,16.20
2022-11-14T20:11:39.037Z,25.30
2022-11-14T20:14:07.042Z,21.30
2022-11-14T20:16:37.066Z,22.37
2022-11-14T20:19:05.397Z,24.67
2022-11-14T20:21:34.812Z,22.93
2022-11-14T20:24:02.288Z,18.80
2022-11-14T20:26:50.365Z,26.90
2022-11-14T20:29:17.504Z,26.47
2022-11-14T20:31:44.677Z,26.20
2022-11-14T20:34:12.123Z,24.80
2022-11-14T20:37:09.146Z,31.40
2022-11-14T20:39:31.552Z,33.10
2022-11-14T20:41:58.861Z,26.17
2022-11-14T20:44:25.949Z,19.23
2022-11-14T20:46:55.572Z,19.93
2022-11-14T20:49:22.680Z,16.70
2022-11-14T20:51:50.002Z,16.00
2022-11-14T20:54:17.503Z,20.57
2022-11-14T20:56:44.538Z,16.47
2022-11-14T20:59:11.809Z,14.63
2022-11-14T21:04:23.013Z,14.00
2022-11-14T21:06:50.228Z,12.67
2022-11-14T21:09:19.845Z,13.20
2022-11-14T21:11:47.074Z,12.17
2022-11-14T21:14:14.291Z,11.73
2022-11-14T21:16:41.803Z,13.00
2022-11-14T21:19:08.958Z,12.70
2022-11-14T21:21:38.667Z,13.83
2022-11-14T21:24:06.993Z,13.47
2022-11-14T21:26:39.131Z,11.37
2022-11-14T21:29:13.462Z,12.47
2022-11-14T21:31:45.183Z,12.40
2022-11-14T21:34:15.772Z,12.43
2022-11-14T21:36:46.963Z,12.70
2022-11-14T21:39:16.717Z,11.77
2022-11-14T21:41:48.524Z,12.33
2022-11-14T21:44:17.908Z,14.87
2022-11-14T21:46:48.741Z,13.73
2022-11-14T21:49:16.288Z,14.53
2022-11-14T21:51:43.420Z,12.93
2022-11-14T21:54:10.778Z,12.17
2022-11-14T21:56:38.053Z,12.00
2022-11-14T21:59:15.530Z,11.43
2022-11-14T22:02:08.296Z,13.90
2022-11-14T22:04:36.766Z,12.93
2022-11-14T22:07:07.201Z,11.40
2022-11-14T22:09:39.896Z,11.70
2022-11-14T22:12:09.717Z,13.10
2022-11-14T22:14:36.890Z,12.10
2022-11-14T22:17:07.015Z,14.33
2022-11-14T22:19:34.082Z,12.40
2022-11-14T22:22:01.272Z,11.93
2022-11-14T22:24:30.483Z,11.70
2022-11-14T22:26:57.567Z,12.33
2022-11-14T22:29:24.659Z,15.17
2022-11-14T22:31:53.120Z,11.77
2022-11-14T22:34:20.278Z,11.13
2022-11-14T22:36:47.395Z,11.30
2022-11-14T22:39:16.919Z,11.33
2022-11-14T22:41:44.136Z,10.50
2022-11-14T22:44:11.218Z,11.67
2022-11-14T22:46:39.223Z,11.03
2022-11-14T22:49:08.572Z,10.93
2022-11-14T22:51:35.684Z,11.40
2022-11-14T22:54:02.829Z,10.33
2022-11-14T22:56:33.095Z,10.70
2022-11-14T22:59:00.900Z,12.47
2022-11-14T23:01:32.979Z,13.13
2022-11-14T23:04:05.905Z,12.47
2022-11-14T23:07:29.547Z,11.47
2022-11-14T23:09:57.784Z,12.27
2022-11-14T23:12:24.800Z,11.30
2022-11-14T23:14:51.812Z,11.13
2022-11-14T23:17:18.967Z,12.83
2022-11-14T23:19:46.144Z,11.03
2022-11-14T23:22:13.243Z,11.17
2022-11-14T23:24:40.346Z,10.90
2022-11-14T23:27:07.365Z,12.67
2022-11-14T23:29:34.569Z,11.53
2022-11-14T23:32:01.786Z,14.87
2022-11-14T23:34:28.958Z,14.47
2022-11-14T23:36:56.017Z,12.03
2022-11-14T23:39:23.177Z,12.40
2022-11-14T23:41:50.315Z,13.73
2022-11-14T23:44:18.318Z,10.10
2022-11-14T23:46:45.455Z,14.07
2022-11-14T23:49:12.568Z,11.50
2022-11-14T23:51:39.709Z,13.27
2022-11-14T23:54:06.777Z,10.97
2022-11-14T23:56:33.895Z,12.37
2022-11-14T23:59:00.964Z,11.23
